Time;durP1;ratioP1;P1;durP2;ratioP2;P2;SDS_P1;SDS_P2;PMS_P1;PMS_P2;Temp;Humidity;BMP_temperature;BMP_pressure;BME280_temperature;BME280_humidity;BME280_pressure;Samples;Min_cycle;Max_cycle;Signal;HPM_P1;HPM_P2
2022/09/14 00:02:09;;;;;;;11.30;9.40;;;;;;;15.86;87.81;99168.41;130423;1268;108674;-78
2022/09/14 00:05:15;;;;;;;9.90;8.90;;;;;;;15.87;87.24;99165.38;130340;1268;108903;-78
2022/09/14 00:08:20;;;;;;;11.60;9.70;;;;;;;15.89;87.57;99165.61;130232;1268;108819;-77
2022/09/14 00:11:28;;;;;;;11.30;9.50;;;;;;;15.86;87.24;99161.61;130227;1268;108736;-77
2022/09/14 00:14:33;;;;;;;10.90;9.20;;;;;;;15.84;87.26;99151.23;130372;1267;108505;-77
2022/09/14 00:17:39;;;;;;;11.10;9.90;;;;;;;15.83;87.23;99150.33;130391;1268;108818;-77
2022/09/14 00:20:44;;;;;;;11.10;9.50;;;;;;;15.82;87.21;99140.44;130409;1268;108723;-77
2022/09/14 00:23:49;;;;;;;12.10;10.50;;;;;;;15.80;87.39;99140.20;130484;1267;108695;-77
2022/09/14 00:26:55;;;;;;;11.70;10.20;;;;;;;15.77;87.35;99147.41;130417;1267;108734;-77
2022/09/14 00:30:01;;;;;;;12.50;9.50;;;;;;;15.75;87.35;99143.70;130230;1268;108483;-77
2022/09/14 00:33:06;;;;;;;10.60;9.50;;;;;;;15.77;87.35;99140.02;130415;1268;108548;-77
2022/09/14 00:36:14;;;;;;;11.90;9.50;;;;;;;15.81;87.34;99137.46;130327;1268;108687;-77
2022/09/14 00:39:22;;;;;;;12.20;10.60;;;;;;;15.84;87.32;99136.00;130462;1268;108768;-76
2022/09/14 00:42:27;;;;;;;10.50;8.70;;;;;;;15.83;87.31;99135.60;130418;1268;108736;-77
2022/09/14 00:45:33;;;;;;;10.90;8.10;;;;;;;15.81;87.19;99132.34;130477;1267;108750;-77
2022/09/14 00:48:38;;;;;;;11.20;9.40;;;;;;;15.83;87.30;99134.61;130416;1268;107592;-77
2022/09/14 00:51:51;;;;;;;11.60;10.00;;;;;;;15.84;87.30;99131.37;130531;1267;108828;-77
2022/09/14 00:54:59;;;;;;;10.80;9.40;;;;;;;15.84;87.21;99128.59;130455;1267;108714;-77
2022/09/14 00:58:04;;;;;;;10.20;9.10;;;;;;;15.81;87.16;99136.23;130462;1268;108999;-77
2022/09/14 01:01:10;;;;;;;12.60;9.10;;;;;;;15.77;87.30;99134.63;129364;1267;1457275;-76
2022/09/14 01:04:16;;;;;;;12.40;9.70;;;;;;;15.73;86.95;99132.20;130562;1268;108783;-77
2022/09/14 01:07:34;;;;;;;12.60;11.00;;;;;;;15.68;87.13;99127.48;130306;1268;108689;-77
2022/09/14 01:10:50;;;;;;;11.80;10.40;;;;;;;15.61;86.93;99125.58;130478;1267;108776;-77
2022/09/14 01:14:03;;;;;;;13.10;10.90;;;;;;;15.54;86.80;99127.66;130357;1267;108717;-77
2022/09/14 01:17:13;;;;;;;11.40;9.60;;;;;;;15.44;87.10;99124.36;130394;1267;108839;-77
2022/09/14 01:20:28;;;;;;;13.40;10.50;;;;;;;15.34;86.93;99129.31;130492;1267;108714;-77
2022/09/14 01:23:41;;;;;;;12.20;10.30;;;;;;;15.25;86.99;99129.05;130343;1267;108769;-77
2022/09/14 01:26:57;;;;;;;15.30;12.10;;;;;;;15.20;86.86;99129.23;130152;1268;109228;-77
2022/09/14 01:30:08;;;;;;;14.40;11.70;;;;;;;15.15;87.03;99126.56;130454;1268;108920;-77
2022/09/14 01:33:19;;;;;;;14.80;12.20;;;;;;;15.08;86.93;99124.84;130325;1268;106741;-77
2022/09/14 01:36:27;;;;;;;14.70;11.50;;;;;;;14.99;87.03;99123.78;130342;1268;108673;-76
2022/09/14 01:39:36;;;;;;;14.80;11.10;;;;;;;14.90;87.18;99121.48;130476;1268;108455;-74
2022/09/14 01:42:45;;;;;;;14.80;10.90;;;;;;;14.85;87.24;99119.71;130351;1268;108787;-77
2022/09/14 01:45:53;;;;;;;12.60;10.60;;;;;;;14.82;87.19;99119.75;130365;1267;108707;-77
2022/09/14 01:49:07;;;;;;;12.70;10.70;;;;;;;14.79;87.28;99114.64;130432;1268;108706;-77
2022/09/14 01:52:15;;;;;;;14.90;11.10;;;;;;;14.73;87.20;99112.66;130417;1267;108644;-77
2022/09/14 01:55:24;;;;;;;12.70;9.60;;;;;;;14.66;87.52;99107.02;130314;1268;108749;-77
2022/09/14 01:58:35;;;;;;;11.00;9.10;;;;;;;14.61;87.54;99103.13;130345;1268;109186;-76
2022/09/14 02:01:46;;;;;;;14.40;10.80;;;;;;;14.56;87.49;99102.45;130488;1267;108906;-75
2022/09/14 02:04:57;;;;;;;13.40;11.20;;;;;;;14.53;87.44;99099.27;130521;1267;109039;-77
2022/09/14 02:08:04;;;;;;;15.50;11.50;;;;;;;14.51;87.62;99099.51;130572;1267;108805;-75
2022/09/14 02:11:09;;;;;;;12.80;11.10;;;;;;;14.48;87.69;99094.17;130452;1267;108883;-75
2022/09/14 02:14:15;;;;;;;13.70;10.80;;;;;;;14.43;87.79;99091.09;130411;1267;108881;-75
2022/09/14 02:17:21;;;;;;;12.80;10.40;;;;;;;14.39;87.93;99085.39;130472;1268;108746;-74
2022/09/14 02:20:37;;;;;;;11.40;10.00;;;;;;;14.36;87.66;99082.04;130318;1268;108555;-74
2022/09/14 02:23:42;;;;;;;12.60;11.00;;;;;;;14.33;87.81;99082.95;130593;1268;109216;-74
2022/09/14 02:26:50;;;;;;;12.90;10.90;;;;;;;14.31;87.74;99083.27;130624;1268;108940;-74
2022/09/14 02:29:55;;;;;;;13.10;11.20;;;;;;;14.27;87.71;99085.96;130814;1267;108788;-74
2022/09/14 02:33:09;;;;;;;13.20;10.10;;;;;;;14.23;87.82;99090.09;130499;1267;107343;-74
2022/09/14 02:36:22;;;;;;;12.50;9.70;;;;;;;14.18;87.87;99090.16;130402;1267;108726;-74
2022/09/14 02:39:35;;;;;;;11.80;9.40;;;;;;;14.15;87.59;99086.09;130477;1267;109926;-74
2022/09/14 02:42:50;;;;;;;13.20;10.70;;;;;;;14.13;87.50;99079.31;130447;1268;107305;-74
2022/09/14 02:46:04;;;;;;;12.50;10.80;;;;;;;14.11;87.61;99079.30;130523;1267;108535;-74
2022/09/14 02:49:18;;;;;;;13.40;10.70;;;;;;;14.08;87.67;99075.35;130335;1268;108618;-75
2022/09/14 02:52:32;;;;;;;17.70;10.40;;;;;;;14.02;87.51;99073.64;130444;1267;108769;-75
2022/09/14 02:55:43;;;;;;;11.80;9.80;;;;;;;13.95;87.48;99074.45;130402;1267;108436;-75
2022/09/14 02:58:48;;;;;;;12.30;10.20;;;;;;;13.92;87.54;99072.85;130260;1267;108819;-75
2022/09/14 03:01:54;;;;;;;12.10;9.40;;;;;;;13.89;87.20;99069.70;130148;1270;108931;-77
2022/09/14 03:04:59;;;;;;;12.80;10.00;;;;;;;13.82;87.04;99071.50;130424;1267;108876;-76
2022/09/14 03:08:06;;;;;;;11.30;9.40;;;;;;;13.77;87.16;99062.96;130487;1267;108745;-77
2022/09/14 03:11:11;;;;;;;11.30;9.20;;;;;;;13.71;86.92;99068.43;130433;1267;108687;-76
2022/09/14 03:14:17;;;;;;;11.60;8.50;;;;;;;13.64;86.78;99073.36;130264;1270;108552;-76
2022/09/14 03:17:22;;;;;;;12.10;9.30;;;;;;;13.60;87.36;99075.33;130388;1267;109723;-76
2022/09/14 03:20:31;;;;;;;14.10;10.40;;;;;;;13.62;87.55;99076.91;130330;1268;108743;-76
2022/09/14 03:23:41;;;;;;;16.20;11.80;;;;;;;13.68;87.92;99081.01;130474;1267;108489;-76
2022/09/14 03:26:46;;;;;;;17.70;14.10;;;;;;;13.77;88.19;99080.81;130485;1267;108869;-76
2022/09/14 03:29:51;;;;;;;13.60;10.40;;;;;;;13.87;88.40;99074.61;130377;1267;107559;-78
2022/09/14 03:32:57;;;;;;;14.40;11.10;;;;;;;13.97;88.43;99074.75;130415;1267;109012;-77
2022/09/14 03:36:11;;;;;;;19.90;13.60;;;;;;;14.06;88.53;99067.37;130484;1267;107588;-76
2022/09/14 03:39:17;;;;;;;17.40;13.20;;;;;;;14.16;88.55;99065.36;130482;1267;108441;-76
2022/09/14 03:42:22;;;;;;;19.90;15.00;;;;;;;14.24;88.48;99063.08;130400;1267;108695;-76
2022/09/14 03:45:27;;;;;;;18.10;12.90;;;;;;;14.27;88.58;99062.14;130459;1267;108928;-76
2022/09/14 03:48:33;;;;;;;17.30;12.30;;;;;;;14.30;88.75;99060.95;130386;1267;108683;-76
2022/09/14 03:51:38;;;;;;;22.50;15.10;;;;;;;14.35;88.64;99058.06;130461;1267;109027;-76
2022/09/14 03:54:44;;;;;;;21.60;15.40;;;;;;;14.38;88.64;99058.88;130492;1267;108479;-76
2022/09/14 03:57:52;;;;;;;20.80;15.40;;;;;;;14.45;89.01;99054.66;130343;1269;108795;-76
2022/09/14 04:01:02;;;;;;;18.80;13.30;;;;;;;14.49;88.75;99057.89;130290;1268;108995;-76
2022/09/14 04:04:07;;;;;;;19.90;13.90;;;;;;;14.51;88.94;99056.56;130475;1267;108123;-77
2022/09/14 04:07:13;;;;;;;24.00;16.80;;;;;;;14.54;89.07;99054.20;130565;1266;108677;-77
2022/09/14 04:10:19;;;;;;;22.10;15.20;;;;;;;14.59;89.00;99048.11;130597;1268;107508;-76
2022/09/14 04:13:24;;;;;;;24.30;15.90;;;;;;;14.64;89.08;99052.36;130339;1267;108864;-76
2022/09/14 04:16:30;;;;;;;26.10;17.70;;;;;;;14.69;89.22;99051.52;130480;1268;108976;-77
2022/09/14 04:19:40;;;;;;;22.40;15.80;;;;;;;14.70;89.28;99050.09;130524;1267;108761;-77
2022/09/14 04:22:46;;;;;;;22.20;15.90;;;;;;;14.73;89.39;99050.41;130257;1268;108908;-78
2022/09/14 04:25:51;;;;;;;20.80;16.40;;;;;;;14.77;89.33;99050.27;130544;1268;108823;-76
2022/09/14 04:28:58;;;;;;;23.30;17.40;;;;;;;14.82;89.34;99050.75;130445;1268;109015;-77
2022/09/14 04:32:04;;;;;;;24.70;17.90;;;;;;;14.86;89.29;99048.68;130554;1267;108828;-79
2022/09/14 04:35:10;;;;;;;23.50;16.40;;;;;;;14.87;89.40;99049.79;130476;1267;107686;-75
2022/09/14 04:38:16;;;;;;;20.00;13.90;;;;;;;14.90;89.76;99050.98;130307;1269;108697;-79
2022/09/14 04:41:23;;;;;;;22.20;17.40;;;;;;;14.95;89.80;99054.98;130220;1268;108767;-76
2022/09/14 04:44:28;;;;;;;22.80;17.00;;;;;;;15.03;89.99;99061.29;130484;1268;109455;-77
2022/09/14 04:47:34;;;;;;;20.90;16.60;;;;;;;15.10;90.05;99059.69;130435;1268;108868;-77
2022/09/14 04:50:39;;;;;;;21.40;16.00;;;;;;;15.15;89.94;99057.98;130385;1268;107845;-77
2022/09/14 04:53:46;;;;;;;20.40;15.20;;;;;;;15.18;89.79;99056.27;130462;1268;108726;-77
2022/09/14 04:56:51;;;;;;;23.50;17.60;;;;;;;15.22;90.08;99055.27;130556;1268;108705;-76
2022/09/14 04:59:57;;;;;;;21.40;16.70;;;;;;;15.30;90.35;99058.66;130280;1268;108675;-76
2022/09/14 05:03:02;;;;;;;19.50;15.10;;;;;;;15.37;90.29;99054.48;130493;1268;108700;-76
2022/09/14 05:06:11;;;;;;;20.90;15.10;;;;;;;15.41;90.07;99058.48;130489;1265;108726;-76
2022/09/14 05:09:18;;;;;;;17.30;13.20;;;;;;;15.43;90.20;99060.27;130499;1268;108689;-78
2022/09/14 05:12:23;;;;;;;20.00;14.70;;;;;;;15.48;90.10;99056.07;130530;1268;107692;-77
2022/09/14 05:15:29;;;;;;;17.90;15.40;;;;;;;15.54;90.42;99054.70;130326;1268;108661;-80
2022/09/14 05:18:34;;;;;;;20.30;16.30;;;;;;;15.62;90.16;99052.27;130503;1268;108843;-78
2022/09/14 05:21:39;;;;;;;15.10;12.30;;;;;;;15.68;90.29;99054.91;130337;1268;108721;-78
2022/09/14 05:24:45;;;;;;;18.70;13.60;;;;;;;15.76;90.29;99050.56;130420;1268;106968;-77
2022/09/14 05:27:51;;;;;;;19.10;14.50;;;;;;;15.86;90.26;99050.86;130307;1268;108974;-78
2022/09/14 05:30:57;;;;;;;23.20;16.50;;;;;;;16.01;90.37;99050.89;130385;1268;108741;-78
2022/09/14 05:34:02;;;;;;;21.10;17.00;;;;;;;16.18;90.34;99053.90;130449;1267;108698;-78
2022/09/14 05:37:08;;;;;;;23.10;16.30;;;;;;;16.28;90.25;99052.87;130432;1268;108678;-78
2022/09/14 05:40:14;;;;;;;18.50;14.70;;;;;;;16.33;90.22;99057.47;130415;1268;108625;-78
2022/09/14 05:43:21;;;;;;;20.60;15.70;;;;;;;16.41;90.10;99054.25;130516;1268;108672;-78
2022/09/14 05:46:27;;;;;;;20.80;15.70;;;;;;;16.48;89.95;99051.16;130433;1268;108222;-78
2022/09/14 05:49:32;;;;;;;20.60;16.50;;;;;;;16.55;89.98;99052.02;130405;1268;108851;-78
2022/09/14 05:52:37;;;;;;;21.20;15.30;;;;;;;16.60;89.86;99056.20;130466;1268;108621;-77
2022/09/14 05:55:43;;;;;;;19.00;14.10;;;;;;;16.63;89.83;99050.98;130431;1267;108580;-78
2022/09/14 05:58:49;;;;;;;20.00;14.70;;;;;;;16.69;89.56;99051.05;130361;1268;109124;-77
2022/09/14 06:01:54;;;;;;;20.60;15.50;;;;;;;16.74;89.46;99045.95;130465;1268;108760;-78
2022/09/14 06:05:00;;;;;;;19.70;15.30;;;;;;;16.74;89.34;99049.89;130280;1271;108788;-78
2022/09/14 06:08:05;;;;;;;20.40;14.90;;;;;;;16.77;89.42;99047.61;130498;1267;107760;-78
2022/09/14 06:11:14;;;;;;;17.70;12.40;;;;;;;16.85;89.40;99046.48;130445;1268;108690;-78
2022/09/14 06:14:20;;;;;;;20.30;13.30;;;;;;;16.99;89.34;99051.27;130322;1268;108993;-77
2022/09/14 06:17:25;;;;;;;17.90;13.40;;;;;;;17.08;89.05;99053.81;130377;1268;109172;-78
2022/09/14 06:20:31;;;;;;;19.00;13.60;;;;;;;17.19;88.82;99058.58;130444;1268;108703;-77
2022/09/14 06:23:37;;;;;;;17.10;12.90;;;;;;;17.31;88.79;99058.05;130404;1268;108549;-77
2022/09/14 06:26:42;;;;;;;17.90;13.30;;;;;;;17.43;88.43;99061.24;130444;1268;108778;-77
2022/09/14 06:29:50;;;;;;;20.20;13.50;;;;;;;17.48;88.01;99064.83;130328;1268;108966;-77
2022/09/14 06:32:56;;;;;;;17.50;12.30;;;;;;;17.41;87.47;99070.59;130378;1268;108879;-77
2022/09/14 06:36:06;;;;;;;16.90;11.80;;;;;;;17.30;87.18;99077.65;130341;1268;108726;-77
2022/09/14 06:39:11;;;;;;;14.80;11.10;;;;;;;17.36;87.49;99073.98;130365;1268;108597;-77
2022/09/14 06:42:17;;;;;;;15.80;12.00;;;;;;;17.48;87.37;99073.17;130410;1268;109086;-77
2022/09/14 06:45:26;;;;;;;16.60;11.90;;;;;;;17.52;85.62;99075.14;130260;1268;108758;-78
2022/09/14 06:48:35;;;;;;;14.20;10.50;;;;;;;17.38;85.86;99078.43;130255;1270;108653;-78
2022/09/14 06:51:41;;;;;;;12.10;8.60;;;;;;;17.38;86.41;99078.97;130413;1268;108626;-79
2022/09/14 06:54:46;;;;;;;15.80;11.20;;;;;;;17.44;86.08;99079.73;130451;1268;108857;-77
2022/09/14 06:57:52;;;;;;;15.40;10.30;;;;;;;17.30;84.33;99085.59;130312;1267;108625;-80
2022/09/14 07:01:03;;;;;;;14.30;9.70;;;;;;;17.30;85.80;99090.65;130219;1269;108675;-77
2022/09/14 07:04:09;;;;;;;14.30;10.30;;;;;;;17.36;85.05;99090.27;130376;1268;108802;-77
2022/09/14 07:07:16;;;;;;;12.90;9.20;;;;;;;17.34;84.87;99090.13;130398;1267;108857;-78
2022/09/14 07:10:21;;;;;;;13.50;9.00;;;;;;;17.39;85.44;99091.52;130411;1268;109094;-76
2022/09/14 07:13:27;;;;;;;12.60;8.70;;;;;;;17.53;84.46;99089.80;130463;1267;108696;-77
2022/09/14 07:16:34;;;;;;;12.30;8.70;;;;;;;17.57;84.29;99087.98;130366;1267;109422;-76
2022/09/14 07:19:39;;;;;;;12.70;8.50;;;;;;;17.79;85.21;99086.73;130404;1267;108723;-77
2022/09/14 07:22:45;;;;;;;11.50;8.90;;;;;;;18.03;84.82;99086.20;130370;1267;108783;-76
2022/09/14 07:26:01;;;;;;;11.90;8.20;;;;;;;18.16;84.34;99088.10;130316;1267;108848;-77
2022/09/14 07:29:12;;;;;;;9.10;6.70;;;;;;;18.21;84.05;99084.83;130418;1267;108772;-77
2022/09/14 07:32:18;;;;;;;10.40;6.60;;;;;;;18.34;84.06;99084.62;130294;1268;108634;-77
2022/09/14 07:35:23;;;;;;;8.70;6.70;;;;;;;18.47;83.58;99079.08;130297;1267;108561;-77
2022/09/14 07:38:29;;;;;;;10.30;7.50;;;;;;;18.51;82.52;99078.65;130393;1267;108855;-77
2022/09/14 07:41:35;;;;;;;9.60;7.30;;;;;;;18.53;83.20;99079.98;130396;1268;108667;-77
2022/09/14 07:44:40;;;;;;;10.70;7.90;;;;;;;18.54;80.78;99079.56;130409;1268;108702;-77
2022/09/14 07:47:45;;;;;;;9.00;6.80;;;;;;;18.50;82.84;99085.95;130307;1267;107689;-77
2022/09/14 07:51:00;;;;;;;9.30;6.80;;;;;;;18.64;83.10;99091.64;130422;1268;108964;-77
2022/09/14 07:54:08;;;;;;;10.10;7.70;;;;;;;18.82;82.01;99094.72;130436;1268;108562;-77
2022/09/14 07:57:13;;;;;;;10.20;7.50;;;;;;;18.92;80.87;99088.09;130333;1267;108858;-77
2022/09/14 08:00:20;;;;;;;9.20;7.00;;;;;;;18.93;80.58;99082.71;130389;1268;108806;-78
2022/09/14 08:03:26;;;;;;;11.30;7.10;;;;;;;19.04;80.51;99081.69;130345;1271;108589;-78
2022/09/14 08:06:32;;;;;;;10.30;7.60;;;;;;;18.95;78.48;99086.71;130404;1268;108691;-78
2022/09/14 08:09:39;;;;;;;8.00;6.30;;;;;;;18.74;79.46;99087.23;130441;1268;108712;-78
2022/09/14 08:12:44;;;;;;;7.50;5.20;;;;;;;18.65;80.61;99088.05;130313;1268;108728;-76
2022/09/14 08:15:49;;;;;;;7.30;5.30;;;;;;;18.70;80.47;99094.48;130252;1268;108730;-76
2022/09/14 08:19:00;;;;;;;8.00;5.60;;;;;;;18.90;79.90;99095.17;130417;1267;108894;-76
2022/09/14 08:22:05;;;;;;;9.50;5.80;;;;;;;18.92;78.89;99093.17;130424;1268;108956;-79
2022/09/14 08:25:12;;;;;;;7.90;5.60;;;;;;;18.90;79.53;99099.73;130429;1268;108589;-78
2022/09/14 08:28:17;;;;;;;8.50;5.20;;;;;;;18.84;79.72;99091.43;130415;1268;108968;-78
2022/09/14 08:31:24;;;;;;;10.70;5.80;;;;;;;18.80;79.48;99092.04;130384;1267;108619;-78
2022/09/14 08:34:30;;;;;;;10.00;5.60;;;;;;;18.77;79.67;99090.53;130407;1268;107313;-78
2022/09/14 08:37:35;;;;;;;7.40;5.20;;;;;;;18.76;79.17;99083.98;130182;1268;107090;-77
2022/09/14 08:40:46;;;;;;;7.30;5.00;;;;;;;18.84;78.83;99078.19;130331;1268;108995;-78
2022/09/14 08:43:52;;;;;;;7.60;4.30;;;;;;;18.95;78.71;99077.19;130417;1268;108862;-78
2022/09/14 08:47:02;;;;;;;6.60;4.60;;;;;;;19.07;77.93;99081.92;130403;1268;108780;-77
2022/09/14 08:50:16;;;;;;;10.40;6.00;;;;;;;19.14;78.03;99080.63;130377;1268;108287;-77
2022/09/14 08:53:22;;;;;;;9.20;6.20;;;;;;;19.09;75.79;99077.55;130485;1268;108860;-77
2022/09/14 08:56:32;;;;;;;9.70;5.70;;;;;;;18.96;76.60;99085.48;130470;1268;107505;-77
2022/09/14 08:59:49;;;;;;;9.30;5.30;;;;;;;18.93;76.58;99082.01;130429;1268;107705;-77
2022/09/14 09:03:17;;;;;;;6.40;4.90;;;;;;;18.85;75.66;99087.65;130415;1268;109019;-77
2022/09/14 09:06:28;;;;;;;7.90;5.00;;;;;;;18.75;75.57;99087.84;130454;1268;108829;-77
2022/09/14 09:09:43;;;;;;;6.20;4.90;;;;;;;18.64;75.59;99087.54;130500;1268;108866;-78
2022/09/14 09:12:52;;;;;;;8.40;4.40;;;;;;;18.58;74.93;99088.09;130397;1268;108777;-77
2022/09/14 09:16:01;;;;;;;6.20;3.70;;;;;;;18.57;74.30;99092.02;130432;1268;108827;-77
2022/09/14 09:19:15;;;;;;;6.90;4.40;;;;;;;18.51;73.38;99091.17;130474;1268;107583;-77
2022/09/14 09:22:25;;;;;;;6.40;3.50;;;;;;;18.57;75.51;99090.50;130341;1268;107291;-77
2022/09/14 09:25:40;;;;;;;4.80;2.40;;;;;;;18.77;73.86;99084.32;130456;1268;108211;-78
2022/09/14 09:28:49;;;;;;;4.80;2.30;;;;;;;18.89;72.80;99086.45;130394;1268;108654;-78
2022/09/14 09:31:57;;;;;;;4.00;2.20;;;;;;;18.93;72.12;99083.48;130435;1268;108839;-81
2022/09/14 09:35:26;;;;;;;4.00;2.10;;;;;;;18.85;68.31;99089.23;130366;1268;108765;-77
2022/09/14 09:38:54;;;;;;;3.20;2.00;;;;;;;18.86;70.72;99083.85;130406;1268;108878;-77
2022/09/14 09:42:05;;;;;;;4.50;2.30;;;;;;;19.05;70.35;99080.33;130400;1268;108734;-77
2022/09/14 09:45:11;;;;;;;4.60;2.30;;;;;;;19.17;70.99;99083.39;130261;1268;108847;-77
2022/09/14 09:48:18;;;;;;;4.40;2.80;;;;;;;19.31;71.19;99079.73;130370;1268;108482;-77
2022/09/14 09:51:30;;;;;;;5.00;3.00;;;;;;;19.31;69.76;99079.83;130400;1268;108811;-76
2022/09/14 09:54:37;;;;;;;5.10;2.80;;;;;;;19.06;69.20;99088.79;130512;1268;108652;-77
2022/09/14 09:57:42;;;;;;;3.60;2.80;;;;;;;18.87;70.08;99095.59;130331;1268;108060;-76
2022/09/14 10:00:57;;;;;;;4.60;2.80;;;;;;;18.70;69.64;99098.36;130368;1268;108752;-76
2022/09/14 10:04:06;;;;;;;4.40;2.10;;;;;;;18.57;69.65;99099.70;130633;1268;108796;-78
2022/09/14 10:07:21;;;;;;;2.90;2.00;;;;;;;18.53;69.91;99099.05;130470;1267;109182;-76
2022/09/14 10:10:41;;;;;;;3.30;1.60;;;;;;;18.45;67.12;99104.21;130334;1268;108546;-76
2022/09/14 10:13:48;;;;;;;2.80;1.90;;;;;;;18.49;69.55;99097.05;130429;1268;108708;-76
2022/09/14 10:17:04;;;;;;;2.80;1.60;;;;;;;18.78;70.05;99099.39;130462;1268;108775;-76
2022/09/14 10:20:23;;;;;;;2.70;1.60;;;;;;;19.00;68.75;99101.90;130505;1268;108455;-76
2022/09/14 10:23:32;;;;;;;3.10;1.90;;;;;;;19.06;67.64;99098.81;130375;1268;109173;-75
2022/09/14 10:26:38;;;;;;;3.00;2.00;;;;;;;19.01;66.47;99101.54;130434;1268;108796;-76
2022/09/14 10:29:44;;;;;;;2.70;1.70;;;;;;;18.91;65.63;99098.73;130333;1268;108786;-79
2022/09/14 10:32:55;;;;;;;3.80;2.10;;;;;;;18.88;66.18;99098.27;130357;1268;108555;-76
2022/09/14 10:36:14;;;;;;;4.50;2.10;;;;;;;18.77;65.31;99104.23;130401;1268;108997;-76
2022/09/14 10:39:25;;;;;;;3.30;2.00;;;;;;;18.73;66.39;99106.11;130374;1268;108705;-77
2022/09/14 10:42:38;;;;;;;3.90;1.60;;;;;;;18.75;65.88;99102.75;130335;1268;108689;-76
2022/09/14 10:45:51;;;;;;;2.00;1.60;;;;;;;18.73;64.89;99101.95;130422;1268;108841;-76
2022/09/14 10:49:22;;;;;;;3.30;1.40;;;;;;;18.79;64.58;99091.18;130388;1268;108681;-76
2022/09/14 10:52:40;;;;;;;2.10;1.30;;;;;;;18.93;64.64;99088.96;130285;1268;107716;-76
2022/09/14 10:55:53;;;;;;;1.50;1.10;;;;;;;19.10;65.13;99095.25;130381;1268;108799;-76
2022/09/14 10:59:14;;;;;;;1.90;1.30;;;;;;;19.15;65.06;99090.61;130431;1267;109029;-76
2022/09/14 11:02:38;;;;;;;1.90;1.20;;;;;;;19.04;64.61;99090.25;130358;1268;108616;-76
2022/09/14 11:05:55;;;;;;;2.40;1.10;;;;;;;19.05;64.32;99086.92;130362;1268;108850;-76
2022/09/14 11:09:05;;;;;;;2.40;1.20;;;;;;;19.02;63.06;99089.95;130337;1268;108784;-76
2022/09/14 11:12:17;;;;;;;2.10;1.30;;;;;;;18.91;62.56;99089.58;130387;1268;108792;-76
2022/09/14 11:15:29;;;;;;;2.50;1.20;;;;;;;18.89;64.06;99089.73;130392;1268;107681;-76
2022/09/14 11:18:43;;;;;;;3.60;1.10;;;;;;;18.79;63.04;99086.39;130425;1268;108749;-76
2022/09/14 11:21:57;;;;;;;2.20;1.30;;;;;;;18.77;63.62;99085.17;130415;1268;108519;-77
2022/09/14 11:25:11;;;;;;;1.80;1.40;;;;;;;18.81;64.53;99085.89;130441;1268;107311;-76
2022/09/14 11:28:21;;;;;;;2.20;1.20;;;;;;;18.89;65.03;99080.72;130300;1268;108585;-77
2022/09/14 11:31:32;;;;;;;2.80;1.60;;;;;;;19.09;63.66;99079.76;130372;1268;108625;-77
2022/09/14 11:34:42;;;;;;;1.80;1.20;;;;;;;19.26;64.46;99071.02;130398;1268;108741;-78
2022/09/14 11:37:53;;;;;;;2.00;1.20;;;;;;;19.39;62.50;99068.42;130254;1268;108992;-77
2022/09/14 11:41:00;;;;;;;;;;;;;;;19.41;62.15;99066.41;130545;1267;108674;-77
2022/09/14 11:44:12;;;;;;;2.60;1.40;;;;;;;19.53;62.83;99058.14;130419;1268;108721;-76
2022/09/14 11:47:19;;;;;;;2.40;1.20;;;;;;;19.67;61.88;99058.80;130053;1270;108711;-77
2022/09/14 11:50:28;;;;;;;3.70;1.00;;;;;;;19.69;60.95;99053.69;130188;1271;108990;-77
2022/09/14 11:53:34;;;;;;;3.60;1.30;;;;;;;19.63;59.76;99056.88;130146;1271;108776;-77
2022/09/14 11:56:39;;;;;;;3.70;1.50;;;;;;;19.67;59.46;99055.00;130198;1270;108720;-77
2022/09/14 11:59:53;;;;;;;1.60;1.20;;;;;;;19.72;60.30;99056.63;130184;1270;108715;-77
2022/09/14 12:03:15;;;;;;;4.50;2.00;;;;;;;19.71;59.07;99052.60;130324;1270;109074;-76
2022/09/14 12:06:52;;;;;;;3.80;1.40;;;;;;;19.75;59.64;99048.02;130354;1270;108812;-76
2022/09/14 12:10:18;;;;;;;2.10;1.30;;;;;;;19.86;61.31;99046.29;130267;1270;108807;-78
2022/09/14 12:13:24;;;;;;;2.70;1.10;;;;;;;19.94;61.36;99045.06;130296;1269;109005;-77
2022/09/14 12:16:29;;;;;;;2.40;1.20;;;;;;;19.92;59.78;99041.77;130275;1270;109007;-76
2022/09/14 12:19:35;;;;;;;2.60;1.20;;;;;;;19.83;60.59;99042.98;130130;1270;108705;-77
2022/09/14 12:22:40;;;;;;;2.50;1.40;;;;;;;19.76;60.77;99035.17;130175;1270;108680;-77
2022/09/14 12:25:58;;;;;;;2.40;1.30;;;;;;;19.75;60.53;99035.88;130327;1270;108830;-77
2022/09/14 12:29:28;;;;;;;1.50;1.30;;;;;;;19.72;60.39;99036.65;130200;1270;108737;-77
2022/09/14 12:32:44;;;;;;;1.90;1.20;;;;;;;19.56;59.24;99037.64;130200;1270;108666;-77
2022/09/14 12:35:50;;;;;;;2.00;1.50;;;;;;;19.48;59.68;99042.14;130122;1270;108871;-77
2022/09/14 12:39:22;;;;;;;2.40;1.40;;;;;;;19.49;61.45;99036.09;130440;1269;108801;-77
2022/09/14 12:42:31;;;;;;;1.60;1.30;;;;;;;19.58;61.37;99031.02;130271;1270;108643;-77
2022/09/14 12:46:00;;;;;;;1.50;1.20;;;;;;;19.66;61.28;99031.10;130303;1268;108223;-77
2022/09/14 12:49:22;;;;;;;3.10;1.40;;;;;;;19.56;60.46;99027.42;130364;1268;107715;-79
2022/09/14 12:52:39;;;;;;;2.40;1.20;;;;;;;19.52;61.51;99023.65;130432;1268;108698;-77
2022/09/14 12:55:56;;;;;;;3.30;1.30;;;;;;;19.61;61.79;99024.91;130428;1268;109607;-77
2022/09/14 12:59:10;;;;;;;2.70;1.50;;;;;;;19.78;61.98;99023.67;128672;1268;2278278;-78
2022/09/14 13:02:48;;;;;;;2.50;1.40;;;;;;;19.92;61.94;99023.70;130231;1268;108931;-77
2022/09/14 13:05:54;;;;;;;3.20;1.60;;;;;;;19.97;61.00;99023.25;130150;1268;108619;-79
2022/09/14 13:09:01;;;;;;;2.30;1.40;;;;;;;19.90;60.81;99027.35;130351;1268;108555;-76
2022/09/14 13:12:11;;;;;;;2.70;1.40;;;;;;;19.85;61.21;99026.13;130377;1268;108734;-78
2022/09/14 13:15:21;;;;;;;3.10;1.20;;;;;;;19.89;61.54;99026.96;130372;1268;108977;-76
2022/09/14 13:18:33;;;;;;;3.20;1.70;;;;;;;19.97;61.90;99014.69;130377;1268;109528;-77
2022/09/14 13:21:48;;;;;;;2.20;1.40;;;;;;;20.06;61.58;99014.83;130414;1267;108690;-76
2022/09/14 13:24:55;;;;;;;3.80;1.50;;;;;;;20.13;61.90;99014.98;130354;1268;108954;-76
2022/09/14 13:28:02;;;;;;;1.80;1.30;;;;;;;20.17;61.78;99012.21;130423;1267;108796;-76
2022/09/14 13:31:16;;;;;;;3.30;1.30;;;;;;;20.19;61.76;99008.92;130354;1268;108494;-77
2022/09/14 13:34:25;;;;;;;3.10;1.40;;;;;;;20.22;62.16;99010.55;130336;1268;108886;-78
2022/09/14 13:37:30;;;;;;;1.70;1.30;;;;;;;20.24;61.47;99013.98;130474;1268;108726;-78
2022/09/14 13:40:37;;;;;;;2.60;1.50;;;;;;;20.18;61.56;99007.77;130383;1268;108904;-78
2022/09/14 13:43:44;;;;;;;2.10;1.40;;;;;;;20.22;61.08;98999.55;130388;1268;109178;-75
2022/09/14 13:46:50;;;;;;;2.00;1.40;;;;;;;20.25;60.31;98996.02;130389;1267;108605;-79
2022/09/14 13:49:56;;;;;;;2.70;1.50;;;;;;;20.28;61.32;98993.23;130290;1268;108958;-78
2022/09/14 13:53:01;;;;;;;2.20;1.50;;;;;;;20.29;60.79;98989.80;130401;1267;108677;-78
2022/09/14 13:56:20;;;;;;;2.40;1.40;;;;;;;20.34;61.44;98992.87;130449;1268;108670;-76
2022/09/14 13:59:25;;;;;;;4.20;2.00;;;;;;;20.38;60.78;98994.48;130322;1267;108705;-77
2022/09/14 14:02:34;;;;;;;2.40;1.40;;;;;;;20.28;60.47;98992.49;130359;1267;108896;-77
2022/09/14 14:05:43;;;;;;;2.70;1.50;;;;;;;20.25;60.50;98989.58;130459;1268;108171;-76
2022/09/14 14:08:55;;;;;;;3.10;1.50;;;;;;;20.31;60.75;98991.45;130303;1268;109633;-76
2022/09/14 14:12:01;;;;;;;1.80;1.50;;;;;;;20.32;60.17;98981.30;130399;1268;109187;-77
2022/09/14 14:15:33;;;;;;;2.10;1.50;;;;;;;20.35;60.88;98979.92;130361;1268;108798;-77
2022/09/14 14:18:42;;;;;;;3.20;1.80;;;;;;;20.42;60.79;98983.11;130398;1268;108735;-76
2022/09/14 14:21:48;;;;;;;2.90;1.70;;;;;;;20.40;59.94;98984.77;130451;1267;109150;-76